x

8452944 - Conimicut Light, Ri (cptr1) Weather Station

1:54 - Sun 24th Jul 2016 All times are EDT. -4 hours from GMT.

  • Wind
    14mph, 16mph gusts
  • Sea Temp 77°f
  • Air Temp 78°f
  • Sea Pressure 1014.8mb
  • 8452944 - Conimicut Light, Ri
  • 8452944 - Conimicut Light, Ri

More Historic Weather Station data

Upgrade to MSW Pro to gain access to the past 30 days of data for over 8000 Wavebouys and Weather Stations around the globe.

Join Pro

Comparision Forecast

View Surf forecast
   
dim. 07/24 1:54 14 16 mph 1014.8mb 77f 78f
1:48 13 14 mph 1014.7mb 77f 78f
1:42 6 15 mph 1014.7mb 77f 78f
1:36 13 15 mph 1014.7mb 77f 81f
1:30 11 14 mph 1014.7mb 76f 81f
1:24 13 17 mph 1014.8mb 76f 81f
1:18 10 13 mph 1014.9mb 76f 81f
1:12 2 10 mph 1015mb 76f 80f
1:06 6 9 mph 1014.9mb 76f 79f
1:00 9 10 mph 1014.8mb 77f 78f
12:54 6 8 mph 1014.9mb 77f 78f
12:48 8 9 mph 1014.8mb 77f 78f
12:42 9 10 mph 1014.7mb 77f 78f
12:36 10
mph
1014.7mb 77f 78f
12:30 9 10 mph 1014.7mb 77f 78f
12:24 9 10 mph 1014.8mb 77f 78f
12:18 9 10 mph 1014.8mb 77f 78f
12:12 10
mph
1014.8mb 76f 77f
12:06 9 10 mph 1014.8mb 76f 77f
12:00 6 10 mph 1014.8mb 76f 78f
11:54 11 14 mph 1014.8mb 76f 78f
11:48 7 9 mph 1014.8mb 76f 77f
11:42 2 5 mph 1014.8mb 76f 78f
11:36 1 2 mph 1014.8mb 76f 78f
11:30  -  1 mph 1014.8mb 76f 79f
11:24  -  2 mph 1014.8mb 76f 79f
11:18 1 3 mph 1014.8mb 76f 78f
11:12 3 5 mph 1014.8mb 76f 80f
11:06 2 3 mph 1014.8mb 76f 78f
11:00 2 5 mph 1014.8mb 76f 77f
10:54 3 7 mph 1014.8mb 76f 77f
10:48 7
mph
1014.8mb 76f 77f
10:42 5 6 mph 1014.8mb 76f 77f
10:36 6 8 mph 1014.7mb 76f 77f
10:30 7 8 mph 1014.8mb 76f 77f
10:24 5 7 mph 1014.7mb 76f 76f
10:18 6 8 mph 1014.7mb 76f 76f
10:12 6 8 mph 1014.7mb 76f 76f
10:06 6 8 mph 1014.9mb 76f 76f
10:00 7 9 mph 1015mb 76f 76f
9:54 6 8 mph 1015mb 76f 76f
9:48 7 8 mph 1014.9mb 76f 76f
9:42 6
mph
1014.9mb 76f 76f
9:36 6 7 mph 1014.9mb 76f 76f
9:30 7
mph
1014.9mb 76f 75f
9:24 6 7 mph 1014.9mb 76f 75f
9:18 6 8 mph 1014.8mb 76f 74f
9:12 6 9 mph 1014.8mb 76f 74f
9:06 8 10 mph 1014.8mb 76f 74f
9:00 7 9 mph 1014.8mb 76f 74f
8:54 8 10 mph 1014.7mb 76f 74f
8:48 9 10 mph 1014.7mb 76f 74f
8:42 10 14 mph 1014.5mb 76f 74f
8:36 10 14 mph 1014.5mb 76f 73f
8:30 11 14 mph 1014.6mb 76f 74f
8:24 13 15 mph 1014.6mb 76f 74f
8:18 13 16 mph 1014.6mb 76f 73f
8:12 14 15 mph 1014.6mb 76f 73f
8:06 14 15 mph 1014.5mb 76f 73f
8:00 14 16 mph 1014.6mb 76f 73f
7:54 14 17 mph 1014.5mb 76f 73f
7:48 14 15 mph 1014.4mb 76f 73f
7:42 14 17 mph 1014.4mb 76f 73f
7:36 14 16 mph 1014.4mb 76f 72f
7:30 15 18 mph 1014.3mb 76f 73f
7:24 15 17 mph 1014.3mb 76f 72f
7:18 15 18 mph 1014.4mb 76f 72f
7:12 16 17 mph 1014.3mb 76f 72f
7:06 15 17 mph 1014.3mb 76f 72f
7:00 16 17 mph 1014.2mb 76f 71f
6:54 16 17 mph 1014.2mb 76f 71f
6:48 14 17 mph 1014.2mb 76f 71f
6:42 15 17 mph 1014.1mb 76f 71f
6:36 14 16 mph 1014.2mb 75f 71f
6:30 14 17 mph 1014mb 75f 71f
6:24 14 17 mph 1013.9mb 75f 71f
6:18 14 16 mph 1013.9mb 75f 71f
6:12 14 15 mph 1013.8mb 76f 71f
6:06 14 15 mph 1013.8mb 76f 71f
6:00 14 16 mph 1013.8mb 76f 71f
5:54 14 17 mph 1013.7mb 76f 71f
5:48 14 16 mph 1013.7mb 76f 71f
5:42 14 16 mph 1013.6mb 76f 71f
5:36 14 16 mph 1013.5mb 76f 71f
5:30 14 17 mph 1013.5mb 76f 71f
5:24 15 17 mph 1013.4mb 76f 72f
5:18 14 16 mph 1013.3mb 76f 71f
5:12 15 17 mph 1013.3mb 76f 71f
5:06 15 17 mph 1013.2mb 77f 71f
5:00 15 18 mph 1013.1mb 77f 72f
4:54 15 18 mph 1013.1mb 77f 72f
4:48 16 20 mph 1013mb 77f 72f
4:42 17 21 mph 1012.9mb 77f 72f
4:36 16 20 mph 1013mb 77f 72f
4:30 20 22 mph 1012.9mb 77f 73f
4:24 20 22 mph 1012.8mb 77f 73f
4:18 20 21 mph 1012.8mb 77f 73f
4:12 20 22 mph 1012.9mb 77f 73f
4:06 20 23 mph 1012.8mb 77f 73f
4:00 21 24 mph 1012.8mb 77f 73f
3:54 22 24 mph 1012.8mb 77f 73f
3:48 21 23 mph 1012.8mb 77f 73f
3:42 21 22 mph 1012.8mb 77f 73f
3:36 17 20 mph 1012.9mb 77f 73f
3:30 17 20 mph 1013mb 77f 73f
3:24 17 21 mph 1013mb 77f 73f
3:18 18 22 mph 1013mb 77f 73f
3:12 18 21 mph 1013mb 77f 74f
3:06 18 22 mph 1013.1mb 77f 74f
3:00 20 21 mph 1013.1mb 77f 74f
2:54 18 21 mph 1013.1mb 77f 74f
2:48 18 21 mph 1013.1mb 77f 74f
2:42 18 20 mph 1013.1mb 77f 74f
2:36 17 20 mph 1013.1mb 77f 74f
2:30 15 18 mph 1013.1mb 77f 74f
2:24 14 20 mph 1013.1mb 77f 74f
2:18 17 21 mph 1013.1mb 77f 74f
2:12 17 21 mph 1013mb 77f 74f
2:06 16 18 mph 1013mb 77f 74f
2:00 16 20 mph 1012.9mb 77f 75f
1:54 15 18 mph 1012.8mb 77f 75f
1:48 14 16 mph 1012.9mb 77f 75f
1:42 14 15 mph 1012.9mb 77f 75f
1:36 10 17 mph 1012.8mb 77f 75f
1:30 13 16 mph 1012.7mb 77f 75f
1:24 13 15 mph 1012.6mb 77f 75f
1:18 13 15 mph 1012.5mb 77f 75f
1:12 9 14 mph 1012.6mb 77f 75f
1:06 11 16 mph 1012.4mb 77f 75f
1:00 14 16 mph 1012.3mb 77f 76f
12:54 14 17 mph 1012.3mb 77f 76f
12:48 14 16 mph 1012.3mb 77f 76f
12:42 14 20 mph 1012.3mb 77f 76f
12:36 15 18 mph 1012.3mb 77f 76f
12:30 13 15 mph 1012.3mb 77f 76f
12:24 16 17 mph 1012.3mb 77f 76f
12:18 13 18 mph 1012.4mb 77f 76f
12:12 15 18 mph 1012.3mb 77f 76f
12:06 15 17 mph 1012.3mb 77f 76f
12:00 13 16 mph 1012.2mb 77f 76f
sam. 07/23 11:54 13 14 mph 1012.1mb 77f 76f
11:48 9 10 mph 1012.1mb 77f 76f
11:42 10 11 mph 1012.1mb 76f 77f
11:36 10 13 mph 1012.1mb 76f 77f
11:30 7 9 mph 1012mb 76f 76f
11:24 5 6 mph 1011.9mb 76f 76f
11:18 3
mph
- 76f 76f
11:12 3 5 mph - 76f 75f
11:06 5 8 mph - 76f 75f
11:00  -  mph - 76f 76f
10:54  -  mph - 76f 76f
10:48 7 9 mph 1011.9mb - -
10:42 8 9 mph 1011.9mb - -
10:36 7 9 mph 1011.8mb - -
10:30 7 8 mph 1011.8mb - -
10:24 8 11 mph 1011.6mb - -
10:18  -  mph 1011.6mb 76f 76f
10:12  -  mph 1011.7mb 76f 77f
10:06  -  mph 1011.6mb 76f 77f
10:00  -  mph - 76f 77f
9:54  -  mph - 76f 77f
9:48  -  mph - 77f -
9:42  -  mph - 77f -
9:36  -  mph - 77f -
9:30 13 16 mph - - -
9:24 10 17 mph - - -
9:18 14 18 mph - 77f -
9:12 16 20 mph - 77f -
9:06 22 26 mph - 77f -
9:00  -  mph - 77f 80f
8:54  -  mph - 77f 80f
8:48 20 26 mph 1009.9mb - -
8:42 23 28 mph 1009.7mb - -
8:36 23 29 mph 1009.8mb - -
8:30 24 30 mph - - -
8:24 28 31 mph - - -
8:18 20 30 mph 1009.4mb 77f -
8:12 21 26 mph 1009.1mb 78f -
8:06 13 14 mph 1008.9mb 78f -
8:00  -  mph - 79f -
7:54  -  mph - 79f -
7:48 14 16 mph - - -
7:42 11 17 mph - - -
7:36 13 16 mph - - -
7:30 14 17 mph - - -
7:24 13 17 mph - - -
7:18 14 22 mph 1008.1mb 79f 88f
7:12 16 20 mph 1008.1mb 79f 89f
7:06 15 21 mph 1008mb 78f 89f
7:00  -  mph - 78f 89f
6:54  -  mph - 78f 89f
6:48  -  mph - 77f 89f
6:42  -  mph - 76f 89f
6:36  -  mph - 75f 89f
6:30 16 20 mph - - -
6:24 16 23 mph - - -
6:18  -  mph - 75f -
6:12  -  mph - 75f -
6:06  -  mph - 75f -
6:00  -  mph - 75f -
5:54  -  mph - 75f -
5:48 21 22 mph 1007.7mb - 89f
5:42 15 18 mph 1007.6mb - 89f
5:36 15 18 mph 1007.6mb - 90f
5:30 17 22 mph 1007.5mb 76f 90f
5:24 18 22 mph 1007.6mb 77f 90f
5:18 17 22 mph 1007.6mb 78f 89f
5:12 21 25 mph 1007.8mb 78f 90f
5:06 16 23 mph 1007.8mb 78f 89f
5:00 20 25 mph 1007.7mb 79f 89f
4:54 22 26 mph 1007.9mb 79f 90f
4:48 18 25 mph 1007.7mb 79f 89f
4:42 13 20 mph 1007.7mb 79f 89f
4:36 16 21 mph 1007.8mb 79f 89f
4:30 17 25 mph 1007.9mb 79f 89f
4:24 17 23 mph 1007.9mb 79f 89f
4:18 18 23 mph 1007.8mb 79f 89f
4:12 16 23 mph 1007.8mb 79f 89f
4:06 20 25 mph 1008.1mb 79f 89f
4:00 17 21 mph 1007.9mb 78f 88f
3:54 17 23 mph 1007.9mb 78f 89f
3:48 21 26 mph 1007.9mb 78f 88f
3:42 18 21 mph 1007.9mb 78f 88f
3:36 16 20 mph 1007.9mb 78f 87f
3:30 17 22 mph 1008mb 78f 88f
3:24 16 20 mph 1008.1mb 78f 87f
3:18 18 21 mph 1008.1mb 78f 87f
3:12 22 26 mph 1008.3mb 78f 88f
3:06 22 24 mph 1008.3mb 78f 88f
3:00 21 25 mph 1008.1mb 78f 88f
2:54 18 25 mph 1008.2mb 78f 87f
2:48 21 26 mph 1008.3mb 78f 87f
2:42 15 24 mph 1008.4mb 77f 88f
2:36 14 20 mph 1008.3mb 77f 87f
2:30 20 26 mph 1008.2mb 77f 87f
2:24 18 22 mph 1008.3mb 76f 87f
2:18 18 24 mph 1008.4mb 76f 87f
2:12 14 18 mph 1008.3mb 76f 86f
2:06 20 23 mph 1008.4mb 76f 86f
2:00 15 22 mph 1008.4mb 76f 87f
1:54 20 22 mph 1008.6mb 77f 86f
1:48 16 18 mph 1008.6mb 77f 86f
1:42 16 21 mph 1008.6mb 76f 86f
1:36 11 15 mph 1008.7mb 76f 85f
1:30 13 22 mph 1008.8mb 76f 85f
1:24 17 22 mph 1008.8mb 76f 85f
1:18 15 23 mph 1008.8mb 76f 85f
1:12 16 21 mph 1008.7mb 76f 86f
1:06 20 23 mph 1008.7mb 76f 85f
1:00 16 20 mph 1008.7mb 76f 85f
12:54 15 22 mph 1008.6mb 76f 85f
12:48 15 17 mph 1008.7mb 76f 85f
12:42 15 20 mph 1008.7mb 77f 85f
12:36 17 22 mph 1008.9mb 76f 85f
12:30 15 20 mph 1008.9mb 76f 85f
12:24 14 18 mph 1008.8mb 76f 85f
12:18 14 17 mph 1008.8mb 77f 84f
12:12 13 17 mph 1008.8mb 76f 84f
12:06 15 17 mph 1008.8mb 76f 84f
12:00 11 17 mph 1009mb 76f 84f
11:54 16 20 mph 1009mb 76f 83f
11:48 16 18 mph 1009.1mb 76f 84f
11:42 15 21 mph 1008.9mb 77f 83f
11:36 15 17 mph 1008.9mb 77f 83f
11:30 14 16 mph 1008.9mb 76f 83f
11:24 14 16 mph 1009.1mb 76f 83f
11:18 14 16 mph 1009.1mb 76f 83f
11:12 13 16 mph 1009mb 76f 83f
11:06 16 18 mph 1009mb 76f 83f
11:00 16 18 mph 1009mb 76f 82f
10:54 15 17 mph 1008.9mb 76f 82f
10:48 15 17 mph 1008.9mb 76f 82f
10:42 14 17 mph 1008.8mb 76f 82f
10:36 13 16 mph 1008.8mb 76f 82f
10:30 16 17 mph 1008.9mb 76f 82f
10:24 13 14 mph 1008.8mb 76f 81f
10:18 11 15 mph 1008.8mb 76f 81f
10:12 11 15 mph 1008.8mb 76f 81f
10:06 10 13 mph 1008.7mb 76f 81f
10:00 11 14 mph 1008.6mb 76f 81f
9:54 10 13 mph 1008.5mb 76f 80f
9:48 10 11 mph 1008.7mb 76f 80f
9:42 10 11 mph 1008.8mb 76f 79f
9:36 8 10 mph 1008.7mb 76f 79f
9:30 8 9 mph 1008.8mb 76f 79f
9:24 9 11 mph 1008.8mb 76f 78f
9:18 10 11 mph 1008.8mb 76f 78f
9:12 10 14 mph 1008.8mb 76f 79f
9:06 13 15 mph 1008.9mb 76f 78f
9:00 13 17 mph 1008.9mb 76f 78f
8:54 15 17 mph 1008.9mb 76f 78f
8:48 14 16 mph 1008.9mb 76f 78f
8:42 14 17 mph 1008.9mb 76f 78f
8:36 14 17 mph 1009mb 76f 78f
8:30 10 14 mph 1008.9mb 76f 78f
8:24 10 14 mph 1008.9mb 76f 78f
8:18 9 11 mph 1008.9mb 76f 77f
8:12 8 10 mph 1008.9mb 76f 77f
8:06 9 13 mph 1008.9mb 76f 77f
8:00 7 8 mph 1009mb 76f 76f
7:54 3 6 mph 1009mb 76f 75f
7:48 3 6 mph 1009mb 76f 75f
7:42 3 5 mph 1009mb 76f 75f
7:36 3
mph
1009.1mb 76f 75f
7:30  -  2 mph 1009.1mb 76f 75f
7:24  -  mph 1009.1mb 76f 75f
7:18  -  2 mph 1009.1mb 76f 75f
7:12 1 2 mph 1009.1mb 76f 74f
7:06 2 5 mph 1009mb 76f 74f
7:00 3 6 mph 1009mb 76f 74f
6:54 5 6 mph 1008.9mb 76f 73f
6:48 6
mph
1008.9mb 76f 73f
6:42 6 7 mph 1008.9mb 76f 73f
6:36 6 7 mph 1008.9mb 76f 74f
6:30 7
mph
1008.9mb 76f 73f
6:24 7 8 mph 1008.9mb 76f 73f
6:18 7 8 mph 1008.8mb 76f 73f
6:12 7 8 mph 1008.8mb 76f 73f
6:06 6 7 mph 1008.8mb 76f 73f
6:00 6
mph
1008.8mb 76f 73f
5:54 6
mph
1008.7mb 76f 73f
5:48 6 7 mph 1008.7mb 76f 73f
5:42 6 7 mph 1008.7mb 76f 73f
5:36 7 8 mph 1008.6mb 76f 73f
5:30 7 8 mph 1008.5mb 76f 73f
5:24 8 9 mph 1008.6mb 76f 73f
5:18 8 9 mph 1008.6mb 76f 73f
5:12 9 10 mph 1008.5mb 76f 73f
5:06 9
mph
1008.5mb 76f 73f
5:00 9 11 mph 1008.4mb 76f 73f
4:54 10 11 mph 1008.4mb 76f 73f
4:48 9 10 mph 1008.4mb 76f 73f
4:42 9
mph
1008.4mb 76f 73f
4:36 8
mph
1008.4mb 76f 73f
4:30 6 7 mph 1008.3mb 76f 73f
4:24 6 7 mph 1008.3mb 76f 73f
4:18 7 8 mph 1008.4mb 76f 73f
4:12 8 10 mph 1008.4mb 76f 73f
4:06 10 11 mph 1008.5mb 76f 73f
4:00 11 13 mph 1008.5mb 76f 73f
3:54 9 11 mph 1008.5mb 76f 73f
3:48 10
mph
1008.5mb 76f 73f
3:42 9 14 mph 1008.6mb 76f 73f
3:36 14 15 mph 1008.5mb 76f 73f
3:30 10 11 mph 1008.5mb 76f 73f
3:24 11 14 mph 1008.5mb 76f 73f
3:18 13
mph
1008.5mb 76f 73f
3:12 11 13 mph 1008.5mb 76f 73f
3:06 13 14 mph 1008.6mb 76f 73f
3:00 13 17 mph 1008.7mb 76f 74f
2:54 13 16 mph 1008.6mb 76f 74f
2:48 11 13 mph 1008.8mb 76f 74f
2:42 7 10 mph 1008.9mb 76f 74f
2:36 9 11 mph 1009.1mb 76f 74f
2:30 9 11 mph 1009mb 76f 74f
2:24 8 9 mph 1009.1mb 76f 74f
2:18 6 9 mph 1009.2mb 76f 74f
2:12 9 10 mph 1009.1mb 76f 74f
2:06 10 16 mph 1009.1mb 76f 74f
2:00 15 16 mph 1008.9mb 76f 73f
1:54 15 16 mph 1008.9mb 76f 74f
1:48 15 18 mph 1008.9mb 76f 74f
1:42 13 20 mph 1009mb 76f 74f
1:36 13 16 mph 1009mb 76f 74f
1:30 8 16 mph 1008.9mb 76f 74f
1:24 6 9 mph 1008.7mb 76f 73f
1:18 13 28 mph 1009.5mb 76f 73f
1:12 24 60 mph 1010.4mb 76f 75f
1:06 32 48 mph 1011.1mb 76f 71f
1:00 10 18 mph 1009.9mb 76f 72f
12:54 13 15 mph 1009.5mb 76f 73f
12:48 7 11 mph 1009.3mb 76f 73f
12:42 11 15 mph 1009.4mb 76f 73f
12:36 10 11 mph 1009.3mb 76f 73f
12:30 10 13 mph 1009mb 76f 73f
12:24 13 14 mph 1009.2mb 76f 73f
12:18 10 11 mph 1009.2mb 76f 73f
12:12 13 16 mph 1009.2mb 76f 72f
12:06 14 20 mph 1009.1mb 76f 73f
12:00 21 26 mph - 76f 73f
ven. 07/22 11:54 21 24 mph - 76f 73f
11:48 18 22 mph 1009.4mb 76f 73f
11:42 25 33 mph 1009.4mb 76f 71f
11:36 29 37 mph 1011.4mb 76f 72f
11:30 20 43 mph 1011.1mb 76f 75f
11:24 39 45 mph 1009.4mb 76f 74f
11:18 20 24 mph 1009.7mb 76f 75f
11:12 17 23 mph 1009.2mb 76f 75f
11:06 20 23 mph 1009.3mb 76f 75f
11:00  -  mph - 76f 75f
10:54  -  mph - 76f 76f
10:48 25 32 mph - - -
10:42 26 32 mph - - -
10:36 21 29 mph - - -
10:30 18 22 mph - 76f -
10:24 18 20 mph - 76f -
10:18 18 22 mph - 76f 78f
10:12 21 26 mph - 76f 78f
10:06 22 23 mph - 76f 78f
10:00 18 21 mph - 76f 78f
9:54 17 29 mph - 76f 78f
9:48 23 32 mph - - -
9:42 28 32 mph - - -
9:36 31 34 mph - - -
9:30 39 47 mph - 76f -
9:24 21 28 mph - 76f -
9:18 22 26 mph 1009.9mb 76f -
9:12 17 20 mph 1009.8mb 76f -
9:06 16 22 mph 1009.8mb 76f -
9:00  -  mph - 76f 80f
8:54  -  mph - 76f 80f
8:48 22 29 mph - - -
8:42 18 24 mph - - -
8:36 18 22 mph - - -
8:30 17 24 mph - - 80f
8:24 17 23 mph - - 80f
8:18  -  mph - 76f -
8:12  -  mph - 76f -
8:06  -  mph - 76f -
8:00  -  mph - - 81f
7:54  -  mph - - 81f
7:48 23 29 mph - 76f -
7:42 22 29 mph - 76f -
7:36 25 33 mph - 76f -
7:30 28 33 mph - 76f -
7:24 26 31 mph - 76f -
7:18 25 29 mph - 76f -
7:12 23 28 mph - 76f -
7:06 20 26 mph - 76f -
7:00 21 25 mph - 76f -
6:54 22 25 mph - 76f -
6:48 17 23 mph - 76f -
6:42 22 28 mph - 76f -
6:36 20 25 mph - 76f -
6:30 25 30 mph - 76f 84f
6:24 23 28 mph - 76f 84f
6:18  -  mph - 76f 83f
6:12  -  mph - 76f 84f
6:06  -  mph - 76f 83f
6:00  -  mph - 76f -
5:54  -  mph - 76f -
5:48 25 28 mph - 76f 83f
5:42 24 28 mph - 76f 82f
5:36 23 26 mph - 76f 83f
5:30 23 26 mph 1008.9mb 76f 83f
5:24 25 28 mph 1009.1mb 75f 84f
5:18 21 26 mph 1009.2mb 75f 84f
5:12 24 30 mph 1009.5mb 75f 85f
5:06 29 32 mph 1009.4mb 75f 85f
5:00 24 29 mph 1009.3mb 76f 84f
4:54 24 28 mph 1009.3mb 75f 84f
4:48 24 30 mph 1009.2mb 76f 80f
4:42 23 29 mph 1009mb 76f 80f
4:36 24 29 mph 1009.1mb 76f 81f
4:30 24 28 mph 1009.2mb 76f 82f
4:24 24 30 mph 1009.5mb 75f 85f
4:18 25 29 mph 1009.5mb 75f 85f
4:12 21 25 mph 1009.5mb 75f 85f
4:06 23 26 mph 1009.4mb 75f 84f
4:00 22 25 mph 1009.3mb 75f 81f
3:54 21 25 mph 1009.3mb 75f 82f
3:48 23 26 mph 1009.2mb 75f 81f
3:42 24 28 mph 1009.3mb 75f 81f
3:36 23 26 mph 1009.3mb 75f 81f
3:30 22 25 mph 1009.5mb 75f 83f
3:24 24 29 mph 1009.8mb 75f 84f
3:18 25 31 mph 1009.7mb 75f 83f
3:12 26 30 mph 1009.8mb 75f 83f
3:06 24 29 mph 1009.9mb 75f 85f
3:00 21 29 mph 1010.1mb 75f 85f
2:54 22 28 mph 1010.2mb 75f 85f
2:48 20 29 mph 1010.3mb 75f 85f
2:42 23 24 mph 1009.9mb 75f 82f
2:36 22 25 mph 1010.1mb 75f 82f
2:30 22 24 mph 1010.1mb 75f 81f
2:24 21 23 mph 1010.2mb 75f 82f
2:18 21 26 mph 1010.3mb 75f 82f
2:12 23 26 mph 1010.2mb 75f 82f
2:06 23 28 mph 1010.3mb 75f 82f
2:00 24 28 mph 1010.2mb 75f 82f
1:54 22 26 mph 1010.3mb 75f 82f
1:48 22 28 mph 1010.4mb 75f 83f
1:42 23 29 mph 1010.5mb 75f 82f
1:36 25 28 mph 1010.5mb 75f 81f
1:30 23 28 mph 1010.6mb 75f 81f
1:24 25 28 mph 1010.6mb 75f 81f
1:18 23 26 mph 1010.6mb 75f 80f
1:12 24 26 mph 1010.6mb 75f 80f
1:06 24 25 mph 1010.7mb 75f 80f
1:00 21 23 mph 1010.9mb 75f 80f
12:54 18 22 mph 1011mb 75f 79f
12:48 21 23 mph 1011.1mb 75f 79f
12:42 21 23 mph 1011.1mb 75f 79f
12:36 20 22 mph 1011.2mb 75f 79f
12:30 21 23 mph 1011.3mb 75f 79f
12:24 22 24 mph 1011.4mb 75f 78f
12:18 22 24 mph 1011.5mb 75f 78f
12:12 22 23 mph 1011.6mb 75f 78f
12:06 17 22 mph 1011.7mb 75f 79f
12:00 21 23 mph 1011.8mb 75f 79f
11:54 21 22 mph 1011.9mb 75f 79f
11:48 20 21 mph 1011.9mb 75f 79f
11:42 20 23 mph 1011.9mb 75f 79f
11:36 16 18 mph 1012.1mb 75f 79f
11:30 14 20 mph 1012.4mb 75f 80f
11:24 16 22 mph 1012.4mb 75f 79f
11:18 16 21 mph 1012.5mb 75f 80f
11:12 18 20 mph 1012.5mb 75f 80f
11:06 20 22 mph 1012.5mb 75f 79f
11:00 20 22 mph 1012.5mb 75f 78f
10:54 18 22 mph 1012.7mb 75f 79f
10:48 20 22 mph 1012.7mb 75f 79f
10:42 18 22 mph 1012.8mb 75f 79f
10:36 18 22 mph 1012.8mb 75f 80f
10:30 17 23 mph 1012.9mb 75f 80f
10:24 16 22 mph 1013mb 75f 79f
10:18 18 22 mph 1013.1mb 75f 80f
10:12 14 21 mph 1013mb 75f 79f
10:06 15 20 mph 1013.1mb 75f 79f
10:00 18 21 mph 1013.2mb 75f 79f
9:54 17 21 mph 1013.2mb 75f 78f
9:48 15 20 mph 1013.3mb 75f 78f
9:42 15 21 mph 1013.1mb 75f 78f
9:36 18 21 mph 1013.2mb 75f 78f
9:30 16 21 mph 1013.2mb 75f 77f
9:24 17 21 mph 1013.3mb 75f 77f
9:18 17 23 mph 1013.3mb 75f 77f
9:12 17 22 mph 1013.6mb 75f 77f
9:06 18 21 mph 1013.6mb 75f 76f
9:00 17 20 mph 1013.6mb 75f 76f
8:54 16 20 mph 1013.7mb 75f 76f
8:48 15 20 mph 1013.8mb 75f 76f
8:42 16 20 mph 1013.9mb 75f 76f
8:36 17 21 mph 1014.1mb 75f 75f
8:30 16 18 mph 1014.2mb 75f 75f
8:24 16 18 mph 1014.2mb 75f 75f
8:18 14 18 mph 1014.3mb 75f 75f
8:12 14 18 mph 1014.4mb 75f 75f
8:06 15 20 mph 1014.4mb 75f 75f
8:00 13 18 mph 1014.5mb 75f 74f
7:54 14 18 mph 1014.5mb 75f 74f
7:48 14 16 mph 1014.5mb 75f 74f
7:42 13 16 mph 1014.6mb 75f 74f
7:36 14 16 mph 1014.8mb 75f 74f
7:30 14 16 mph 1014.8mb 75f 74f
7:24 13 18 mph 1014.9mb 75f 74f
7:18 16 18 mph 1014.9mb 75f 73f
7:12 17 20 mph 1014.9mb 75f 73f
7:06 15 18 mph 1015mb 75f 73f
7:00 16 18 mph 1015mb 75f 73f
6:54 15 20 mph 1015mb 75f 73f
6:48 15 18 mph 1015mb 75f 73f
6:42 15 20 mph 1015mb 75f 73f
6:36 14 16 mph 1015mb 75f 72f
6:30 13 15 mph 1015.1mb 75f 72f
6:24 13 16 mph 1015.3mb 75f 72f
6:18 11 15 mph 1015.1mb 75f 72f
6:12 11 16 mph 1015.1mb 75f 72f
6:06 13 15 mph 1015.1mb 75f 72f
6:00 11 14 mph 1015.1mb 75f 71f
5:54 11 16 mph 1015.1mb 75f 71f
5:48 14 16 mph 1015.2mb 75f 71f
5:42 15 17 mph 1015.3mb 75f 71f
5:36 14 17 mph 1015.2mb 75f 71f
5:30 13 15 mph 1015.3mb 75f 71f
5:24 14 15 mph 1015.4mb 75f 71f
5:18 14 15 mph 1015.4mb 74f 71f
5:12 14 16 mph 1015.2mb 74f 71f
5:06 15 17 mph 1015.3mb 74f 71f
5:00 15 17 mph 1015.4mb 74f 71f
4:54 14 16 mph 1015.3mb 74f 71f
4:48 14 17 mph 1015.3mb 74f 71f
4:42 14 17 mph 1015.4mb 74f 71f
4:36 13 15 mph 1015.6mb 75f 71f
4:30 13 15 mph 1015.6mb 75f 72f
4:24 13 15 mph 1015.5mb 75f 72f
4:18 14 15 mph 1015.4mb 75f 72f
4:12 14 18 mph 1015.4mb 75f 72f
4:06 16 18 mph 1015.4mb 75f 72f
4:00 15 16 mph 1015.5mb 75f 72f
3:54 14 16 mph 1015.5mb 75f 72f
3:48 14 16 mph 1015.5mb 75f 72f
3:42 13 15 mph 1015.7mb 75f 72f
3:36 14 15 mph 1015.8mb 75f 72f
3:30 13 16 mph 1015.8mb 75f 72f
3:24 14 16 mph 1015.8mb 75f 72f
3:18 13 17 mph 1015.9mb 75f 72f
3:12 14 18 mph 1015.9mb 75f 72f
3:06 15 17 mph 1015.9mb 75f 72f
3:00 16 20 mph 1015.9mb 75f 72f
2:54 16 21 mph 1015.9mb 75f 72f
2:48 17 20 mph 1015.9mb 75f -
2:42 16 20 mph 1015.9mb 75f -
2:36 16 20 mph 1016mb 75f -
2:30 17 21 mph 1015.9mb 75f 72f
2:24 16 21 mph 1015.9mb 75f 72f
2:18 17 22 mph 1016mb 75f 73f
2:12 15 17 mph 1016.1mb 75f 73f
2:06 15 20 mph 1016.2mb 75f 73f
2:00 15 21 mph 1016.2mb 75f 73f
1:54 15 18 mph 1016.3mb 75f 73f
1:48 16 21 mph 1016.3mb - -
1:42 14 17 mph 1016.3mb - -
1:36 15 20 mph 1016.4mb - -
1:30 14 17 mph 1016.4mb 75f 73f
1:24 15 18 mph 1016.5mb 75f 73f
1:18 14 16 mph 1016.6mb 75f 72f
1:12 15 17 mph 1016.5mb 75f 72f
1:06 15 20 mph 1016.5mb 75f 72f
1:00 15 17 mph 1016.6mb 75f 72f
12:54 14 20 mph 1016.7mb 75f 72f
12:48 15 20 mph 1016.7mb 76f 72f
12:42 15 18 mph 1016.7mb 76f 73f
12:36 15 17 mph 1016.7mb 76f 73f
12:30 14 17 mph 1016.8mb 76f 73f
12:24 14 17 mph 1017mb 76f 73f
12:18 14 16 mph 1017.1mb 76f 72f
12:12 14 16 mph 1017.2mb 76f 73f
12:06 14 18 mph 1017.3mb 76f 73f
12:00 14 16 mph 1017.3mb 76f 73f
jeu. 07/21 11:54 14 16 mph 1017.3mb 76f 73f
11:48 14 16 mph 1017.3mb 76f 73f
11:42 14 18 mph 1017.3mb 76f 73f
11:36 14 18 mph 1017.4mb 76f 73f
11:30 15 18 mph 1017.5mb 76f 73f
11:24 15 18 mph 1017.5mb 76f 73f
11:18 15 17 mph - 76f 73f
11:12 15 18 mph - 76f 73f
11:06 14 16 mph - 76f 73f
11:00  -  mph - 75f 74f
10:54  -  mph - 75f 74f
10:48 14 17 mph - 75f -
10:42 14 16 mph - 75f -
10:36 14 16 mph - 75f -
10:30 15 17 mph - 75f -
10:24 14 17 mph - 75f -
10:18 16 17 mph - 75f 74f
10:12 15 18 mph - 75f 75f
10:06 16 17 mph - 76f 75f
10:00  -  mph - 76f 75f
9:54  -  mph - 76f 75f
9:48 15 17 mph - - -
9:42 16 20 mph - - -
9:36 16 18 mph - - -
9:30 17 20 mph - 76f -
9:24 14 20 mph - 76f -
9:18 15 20 mph - 76f -
9:12 16 18 mph - 76f -
9:06 16 21 mph - 76f -
9:00  -  mph - 76f 76f
8:54  -  mph - 76f 76f
8:48  -  mph - 76f -
8:42  -  mph - 76f -
8:36  -  mph - 76f -
8:30  -  mph - 76f -
8:24  -  mph - 76f -
8:18 18 22 mph 1017.6mb 76f -
8:12 20 22 mph 1017.5mb 76f -
8:06 17 21 mph 1017.6mb 76f -
8:00  -  mph - 76f 77f
7:54  -  mph - 76f 77f
7:48  -  mph - 76f -
7:42  -  mph - 76f -
7:36  -  mph - 76f -
7:30  -  mph - 76f -
7:24  -  mph - 76f -
7:18 17 23 mph - 75f 78f
7:12 20 23 mph - 75f 78f
7:06 21 23 mph - 75f 78f
7:00  -  mph - 75f -
6:54  -  mph - 75f -
6:48  -  mph - 75f -
6:42  -  mph - 75f -
6:36  -  mph - 75f -
6:30  -  mph - 75f -
6:24  -  mph - 75f -
6:18  -  mph 1017.4mb 76f 78f
6:12  -  mph 1017.4mb 76f 78f
6:06  -  mph 1017.6mb 76f 79f
6:00  -  mph - 76f 79f
5:54  -  mph - 77f 79f
5:48 24 26 mph 1017.8mb 77f 79f
5:42 24 28 mph 1017.8mb 77f 79f
5:36 24 26 mph 1017.8mb 77f 79f
5:30 22 26 mph 1017.8mb 77f 80f
5:24 23 26 mph 1017.9mb 77f 80f
5:18 25 29 mph 1017.8mb 77f 80f
5:12 24 29 mph 1017.9mb 77f 80f
5:06 26 29 mph 1017.8mb 76f 80f
5:00 25 31 mph 1017.8mb 76f 80f
4:54 26 29 mph 1017.8mb 75f 80f
4:48 23 26 mph 1017.9mb 74f 80f
4:42 24 29 mph 1017.8mb 73f 79f
4:36 25 30 mph 1017.8mb 73f 79f
4:30 26 28 mph 1017.7mb 74f 79f
4:24 26 29 mph 1017.8mb 74f 79f
4:18 26 30 mph 1017.8mb 75f 80f
4:12 25 28 mph 1017.8mb 75f 79f
4:06 24 28 mph 1017.8mb 75f 79f
4:00 23 26 mph 1018.1mb 75f 80f
3:54 22 26 mph 1017.9mb 76f 80f
3:48 18 25 mph 1018.2mb 76f 80f
3:42 18 23 mph 1018mb 76f 81f
3:36 17 24 mph 1018mb 76f 81f
3:30 20 26 mph 1018.1mb 76f 80f
3:24 24 25 mph 1018mb 76f 79f
3:18 23 29 mph 1018.2mb 77f 80f
3:12 18 28 mph 1018.3mb 77f 80f
3:06 24 26 mph 1018.3mb 77f 79f
3:00 17 25 mph 1018.5mb 77f 80f
2:54 22 26 mph 1018.5mb 77f 79f
2:48 24 26 mph 1018.3mb 77f 79f
2:42 20 21 mph 1018.4mb 77f 78f
2:36 18 22 mph 1018.5mb 76f 78f
2:30 20 22 mph 1018.5mb 76f 78f
2:24 20 23 mph 1018.6mb 76f 78f
2:18 18 22 mph 1018.7mb 76f 78f
2:12 20 22 mph 1018.7mb 76f 78f
2:06 18 20 mph 1018.7mb 76f 78f
2:00 15 18 mph 1019mb 76f 78f
1:54 13 17 mph 1019.2mb 76f 78f
1:48 15 17 mph 1019.1mb 76f 78f
1:42 13 17 mph 1019.3mb 76f 79f
1:36 17 18 mph 1019.4mb 76f 79f
1:30 11 16 mph 1019.4mb 76f 79f
1:24 7 11 mph 1019.5mb 76f 81f
1:18 8 21 mph 1019.6mb 76f 82f
1:12 13 18 mph 1019.9mb 76f 82f
1:06 9 18 mph 1019.9mb 76f 82f
1:00 9 13 mph 1019.9mb 76f 81f
12:54 11 16 mph 1019.8mb 76f 81f
12:48 14 15 mph 1019.8mb 76f 81f
12:42 8 10 mph 1019.7mb 76f 81f
12:36 6 7 mph 1019.9mb 76f 81f
12:30 2 8 mph 1020.1mb 76f 81f
12:24 2 9 mph 1020.4mb 76f 81f
12:18 7 15 mph 1020.4mb 76f 81f
12:12 10 13 mph 1020.4mb 76f 80f
12:06 8 15 mph 1020.5mb 76f 80f
12:00 8 13 mph 1020.5mb 76f 80f
11:54 14 17 mph 1020.6mb 76f 80f
11:48 11 15 mph 1020.9mb 76f 80f
11:42 6 10 mph 1021.1mb 76f 80f
11:36 9 11 mph 1021.2mb 76f 80f
11:30 6 14 mph 1021.1mb 76f 80f
11:24 10 13 mph 1021.1mb 75f 80f
11:18 3 8 mph 1021.1mb 75f 80f
11:12 10 15 mph 1021.1mb 75f 79f
11:06 9 11 mph 1021mb 75f 79f
11:00 5 8 mph 1021.1mb 75f 76f
10:54 5 10 mph 1021.1mb 75f 76f
10:48 6 9 mph 1021.1mb 75f 75f
10:42 6 9 mph 1021.2mb 75f 76f
10:36 7 8 mph 1021.3mb 75f 75f
10:30 8 9 mph 1021.3mb 75f 75f
10:24 8 10 mph 1021.4mb 75f 75f
10:18 8 9 mph 1021.4mb 75f 74f
10:12 8 10 mph 1021.5mb 75f 74f
10:06 8 10 mph 1021.6mb 75f 75f
10:00 9
mph
1021.4mb 74f 74f
9:54 7 8 mph 1021.4mb 74f 74f
9:48 6 8 mph 1021.5mb 74f 74f
9:42 6 7 mph 1021.4mb 74f 73f
9:36 7 8 mph 1021.4mb 74f 74f
9:30 8 9 mph 1021.3mb 75f 73f
9:24 7 8 mph 1021.3mb 75f 73f
9:18 6 7 mph 1021.3mb 75f 73f
9:12 6
mph
1021.4mb 75f 72f
9:06 3 5 mph 1021.7mb 75f 72f
9:00 5
mph
1021.7mb 75f 72f
8:54 5 6 mph 1021.7mb 75f 71f
8:48 3 5 mph 1021.7mb 75f 71f
8:42 3 6 mph 1021.7mb 75f 72f
8:36 3 6 mph 1021.7mb 75f 72f
8:30 1 2 mph 1021.6mb 75f 72f
8:24 2 5 mph 1021.8mb 75f 71f
8:18 2 6 mph 1021.7mb 75f 70f
8:12 2 5 mph 1021.8mb 75f 70f
8:06 1 3 mph 1021.9mb 75f 69f
8:00 2 5 mph 1022mb 74f 69f
7:54 5 6 mph 1022.2mb 74f 69f
7:48 5 6 mph 1022.2mb 74f 68f
7:42 5
mph
1022.2mb 74f 68f
7:36 6 7 mph 1022.2mb 74f 68f
7:30 5 6 mph 1022.3mb 74f 67f
7:24 5 6 mph 1022.3mb 74f 67f
7:18 5 6 mph 1022.2mb 74f 67f
7:12 3 5 mph 1022.2mb 74f 66f
7:06 5 6 mph 1022.3mb 74f 66f
7:00 5 6 mph 1022.2mb 74f 66f
6:54 3 6 mph 1022.1mb 74f 66f
6:48 2 3 mph 1022.1mb 74f 66f
6:42 2
mph
1022.1mb 74f 65f
6:36 2 3 mph 1022mb 74f 65f
6:30 2 3 mph 1021.9mb 74f 65f
6:24 2 3 mph 1021.9mb 75f 65f
6:18 2 3 mph 1021.8mb 75f 65f
6:12 3 5 mph 1021.8mb 75f 65f
6:06 2 3 mph 1021.9mb 75f 65f
6:00 3 6 mph 1021.8mb 75f 65f
5:54 3 7 mph 1021.8mb 75f 65f
5:48 5 6 mph 1021.8mb 75f 65f
5:42 2 5 mph 1021.7mb 75f 65f
5:36 2 3 mph 1021.6mb 75f 65f
5:30 2 6 mph 1021.5mb 75f 65f
5:24 3 7 mph 1021.5mb 75f 65f
5:18 5 7 mph 1021.6mb 75f 65f
5:12 5 7 mph 1021.5mb 75f 65f
5:06 6 8 mph 1021.3mb 75f 66f
5:00 6 8 mph 1021.2mb 75f 66f
4:54 6
mph
1021.3mb 75f 66f
4:48 5 6 mph 1021.2mb 74f 66f
4:42 6
mph
1021.2mb 74f 65f
4:36 5 6 mph 1021.2mb 74f 65f
4:30 5 6 mph 1021.1mb 74f 65f
4:24 5 6 mph 1021mb 74f 66f
4:18 5 6 mph 1020.9mb 73f 66f
4:12 5 6 mph 1020.8mb 73f 66f
4:06 5 6 mph 1020.8mb 73f 66f
4:00 6
mph
1020.9mb 73f 67f
3:54 5 6 mph 1020.9mb 73f 67f
3:48 5 6 mph 1021mb 74f 66f
3:42 5 6 mph 1021.1mb 74f 66f
3:36 6 7 mph 1021.2mb 74f 66f
3:30 7 8 mph 1021.3mb 74f 66f
3:24 5 6 mph 1021.3mb 74f 67f
3:18 5
mph
1021.3mb 75f 68f
3:12 5
mph
1021.2mb 75f 68f
3:06 3 5 mph 1021.3mb 75f 68f
3:00 5 6 mph 1021.3mb 75f 68f
2:54 6 7 mph 1021.4mb 76f 68f
2:48 6
mph
1021.4mb 76f 68f
2:42 6
mph
1021.4mb 76f 68f
2:36 6
mph
1021.4mb 76f 68f
2:30 6
mph
1021.5mb 76f 68f
2:24 5 6 mph 1021.6mb 76f 69f
2:18 6
mph
1021.5mb 76f 69f
2:12 5 6 mph 1021.6mb 76f 69f
2:06 3
mph
1021.6mb 76f 69f
2:00 3
mph
1021.7mb 76f 69f
1:54 5 6 mph 1021.7mb 76f 69f
1:48 5 6 mph 1021.7mb - -
1:42 6
mph
1021.8mb - -
1:36 6
mph
1021.8mb - -
1:30 6
mph
1021.8mb 76f 69f
1:24 5 6 mph 1021.8mb 76f 69f
1:18 6 8 mph 1021.9mb 76f 68f
1:12 8 9 mph 1021.9mb 76f 68f
1:06 7 8 mph 1021.9mb 76f 69f
1:00 6 7 mph 1021.9mb 76f 69f
12:54 7 8 mph 1022mb 76f 69f
12:48 7 8 mph 1022mb 76f 69f
12:42 6 7 mph 1022mb 76f 69f
12:36 6 7 mph 1022mb 76f 70f
12:30 6
mph
1022mb 76f 70f
12:24 6
mph
1022mb 76f 70f
12:18 6
mph
1021.9mb 76f 71f
12:12 5 6 mph 1021.9mb 76f 71f
12:06 6
mph
1022mb 76f 72f
12:00 6
mph
1021.9mb 76f 72f
mer. 07/20 11:54 6 7 mph 1022mb 76f 72f
11:48 3 5 mph 1022mb 76f 73f
11:42 2
mph
1022mb 76f 73f
11:36 1 2 mph 1022mb 76f 73f
11:30 1 5 mph 1022mb 76f 73f
11:24 5 6 mph 1022mb 76f 72f
11:18  -  mph - 76f -
11:12  -  mph - 76f -
11:06  -  mph - 76f -
11:00  -  mph - 76f 74f
10:54  -  mph - 76f 74f
10:48  -  mph 1022mb 76f -
10:42  -  mph 1021.9mb 76f -
10:36  -  mph 1021.9mb 76f -
10:30 6 7 mph - 76f -
10:24 6 7 mph - 76f -
10:18 6 7 mph - 76f -
10:12 6
mph
- 76f -
10:06 3 5 mph - 76f -
10:00  -  mph - 76f 74f
9:54  -  mph - 76f 73f
9:48 7 8 mph 1021.5mb 76f -
9:42 7 8 mph 1021.4mb 76f -
9:36 7 8 mph 1021.4mb 76f -
9:30  -  mph - 75f -
9:24  -  mph - 75f -
9:18 6 7 mph - 75f -
9:12 5 7 mph - 74f -
9:06 7 8 mph - 74f -
9:00  -  mph - 75f 77f
8:54  -  mph - 75f 76f
8:48  -  mph 1020.9mb 75f -
8:42  -  mph 1020.8mb 75f -
8:36  -  mph 1020.8mb 75f -
8:30 6 7 mph - 76f -
8:24 7 9 mph - 76f -
8:18 9
mph
- 76f 78f
8:12 8 9 mph - 76f 78f
8:06 8 9 mph - 76f 78f
8:00  -  mph 1020.6mb 75f 78f
7:54  -  mph 1020.6mb 75f 78f
7:48  -  mph 1020.6mb 75f 78f
7:42  -  mph 1020.5mb 75f 78f
7:36  -  mph 1020.5mb 74f 78f
7:30 13 14 mph - 74f -
7:24 9 11 mph - 73f -
7:18 11 13 mph - 73f -
7:12 10 11 mph - 73f -
7:06 10 15 mph - 73f -
7:00  -  mph - - 79f
6:54  -  mph - - 79f
6:48 11 16 mph - - -